createdAt,value
2023-02-17T00:01:11.527Z,96385.31
2023-02-17T00:03:39.621Z,96375.63
2023-02-17T00:06:08.861Z,96382.44
2023-02-17T00:08:37.180Z,96374.00
2023-02-17T00:11:05.790Z,96381.50
2023-02-17T00:13:33.777Z,96378.25
2023-02-17T00:16:08.083Z,96381.81
2023-02-17T00:18:36.344Z,96379.53
2023-02-17T00:21:13.241Z,96386.81
2023-02-17T00:23:41.222Z,96379.84
2023-02-17T00:26:09.347Z,96384.72
2023-02-17T00:28:37.334Z,96382.75
2023-02-17T00:31:11.198Z,96380.50
2023-02-17T00:33:39.279Z,96375.66
2023-02-17T00:36:09.257Z,96378.91
2023-02-17T00:38:38.418Z,96379.72
2023-02-17T00:41:06.691Z,96370.47
2023-02-17T00:43:34.669Z,96380.50
2023-02-17T00:46:04.463Z,96382.47
2023-02-17T00:48:34.371Z,96385.09
2023-02-17T00:51:02.503Z,96386.72
2023-02-17T00:53:30.741Z,96390.28
2023-02-17T00:55:58.756Z,96394.50
2023-02-17T00:58:26.970Z,96385.91
2023-02-17T01:00:56.657Z,96384.75
2023-02-17T01:03:25.448Z,96384.75
2023-02-17T01:05:55.662Z,96390.28
2023-02-17T01:08:25.517Z,96393.53
2023-02-17T01:10:54.339Z,96391.91
2023-02-17T01:13:22.833Z,96394.84
2023-02-17T01:15:53.238Z,96393.72
2023-02-17T01:18:23.229Z,96392.56
2023-02-17T01:20:52.341Z,96404.56
2023-02-17T01:23:22.126Z,96402.63
2023-02-17T01:25:50.789Z,96399.34
2023-02-17T01:28:21.437Z,96396.41
2023-02-17T01:30:49.907Z,96392.84
2023-02-17T01:33:17.992Z,96404.53
2023-02-17T01:35:46.564Z,96389.28
2023-02-17T01:38:14.638Z,96400.97
2023-02-17T01:40:48.873Z,96388.63
2023-02-17T01:43:18.220Z,96385.06
2023-02-17T01:45:52.527Z,96388.63
2023-02-17T01:48:23.822Z,96383.78
2023-02-17T01:50:55.084Z,96387.00
2023-02-17T01:53:29.051Z,96388.28
2023-02-17T01:55:58.681Z,96389.25
2023-02-17T01:58:29.233Z,96378.69
2023-02-17T02:01:00.520Z,96385.31
2023-02-17T02:03:31.391Z,96382.09
2023-02-17T02:06:01.322Z,96376.91
2023-02-17T02:08:35.408Z,96385.31
2023-02-17T02:11:04.791Z,96385.31
2023-02-17T02:13:34.158Z,96386.47
2023-02-17T02:16:12.215Z,96394.41
2023-02-17T02:18:55.401Z,96385.66
2023-02-17T02:21:58.173Z,96388.00
2023-02-17T02:24:36.383Z,96381.19
2023-02-17T02:27:49.395Z,96385.91
2023-02-17T02:30:56.868Z,96380.59
2023-02-17T02:33:33.622Z,96378.28
2023-02-17T02:36:07.197Z,96376.34
2023-02-17T02:38:42.084Z,96373.75
2023-02-17T02:41:14.145Z,96379.22
2023-02-17T02:43:43.640Z,96367.56
2023-02-17T02:46:11.757Z,96365.63
2023-02-17T02:48:42.115Z,96370.47
2023-02-17T02:51:42.832Z,96367.25
2023-02-17T02:54:28.889Z,96360.44
2023-02-17T02:57:10.185Z,96369.19
2023-02-17T02:59:47.254Z,96369.19
2023-02-17T03:02:23.152Z,96368.56
2023-02-17T03:04:59.484Z,96374.72
2023-02-17T03:07:31.528Z,96377.97
2023-02-17T03:10:01.732Z,96386.72
2023-02-17T03:12:30.252Z,96380.25
2023-02-17T03:15:03.363Z,96382.19
2023-02-17T03:17:32.780Z,96377.34
2023-02-17T03:20:03.995Z,96376.69
2023-02-17T03:22:37.698Z,96371.03
2023-02-17T03:25:06.277Z,96373.28
2023-02-17T03:27:34.248Z,96379.28
2023-02-17T03:30:02.285Z,96383.16
2023-02-17T03:32:30.356Z,96373.47
2023-02-17T03:34:58.296Z,96367.63
2023-02-17T03:37:27.734Z,96374.13
2023-02-17T03:39:55.765Z,96361.16
2023-02-17T03:42:24.057Z,96352.75
2023-02-17T03:44:52.051Z,96363.44
2023-02-17T03:47:19.997Z,96373.81
2023-02-17T03:49:47.953Z,96368.63
2023-02-17T03:52:15.979Z,96374.13
2023-02-17T03:54:45.489Z,96365.38
2023-02-17T03:57:13.488Z,96361.66
2023-02-17T03:59:41.514Z,96371.19
2023-02-17T04:02:09.455Z,96359.22
2023-02-17T04:04:37.775Z,96378.00
2023-02-17T04:07:05.930Z,96370.22
2023-02-17T04:09:33.914Z,96379.94
2023-02-17T04:12:03.307Z,96371.06
2023-02-17T04:14:31.329Z,96384.19
2023-02-17T04:16:59.266Z,96382.22
2023-02-17T04:19:27.312Z,96385.81
2023-02-17T04:21:55.255Z,96389.38
2023-02-17T04:24:23.219Z,96387.75
2023-02-17T04:26:51.160Z,96392.78
2023-02-17T04:29:20.521Z,96394.56
2023-02-17T04:31:48.587Z,96387.75
2023-02-17T04:34:16.644Z,96386.94
2023-02-17T04:36:44.665Z,96389.38
2023-02-17T04:39:12.703Z,96390.66
2023-02-17T04:41:40.728Z,96388.06
2023-02-17T04:44:08.709Z,96385.78
2023-02-17T04:46:38.038Z,96385.44
2023-02-17T04:49:06.011Z,96382.19
2023-02-17T04:51:33.984Z,96384.44
2023-02-17T04:54:01.986Z,96387.84
2023-02-17T04:56:29.944Z,96391.28
2023-02-17T04:58:57.987Z,96384.16
2023-02-17T05:01:26.013Z,96384.16
2023-02-17T05:03:55.376Z,96382.84
2023-02-17T05:06:23.327Z,96382.53
2023-02-17T05:08:51.436Z,96373.63
2023-02-17T05:11:19.375Z,96372.81
2023-02-17T05:13:47.325Z,96386.63
2023-02-17T05:16:15.452Z,96383.53
2023-02-17T05:18:43.444Z,96392.44
2023-02-17T05:21:12.789Z,96390.31
2023-02-17T05:23:41.421Z,96389.03
2023-02-17T05:26:10.455Z,96391.31
2023-02-17T05:28:39.186Z,96386.47
2023-02-17T05:31:07.758Z,96390.03
2023-02-17T05:33:36.045Z,96391.31
2023-02-17T05:36:09.244Z,96392.94
2023-02-17T05:38:39.964Z,96390.34
2023-02-17T05:41:07.977Z,96388.06
2023-02-17T05:43:35.954Z,96388.06
2023-02-17T05:46:04.569Z,96391.31
2023-02-17T05:48:33.129Z,96398.13
2023-02-17T05:51:01.280Z,96393.25
2023-02-17T05:53:29.349Z,96392.94
2023-02-17T05:55:58.752Z,96395.84
2023-02-17T05:58:27.341Z,96398.09
2023-02-17T06:00:55.400Z,96403.28
2023-02-17T06:03:23.368Z,96403.28
2023-02-17T06:05:51.405Z,96402.00
2023-02-17T06:08:19.417Z,96398.78
2023-02-17T06:10:47.520Z,96401.69
2023-02-17T06:13:16.840Z,96400.88
2023-02-17T06:15:44.934Z,96401.03
2023-02-17T06:18:12.913Z,96404.59
2023-02-17T06:20:41.223Z,96408.81
2023-02-17T06:23:09.203Z,96401.38
2023-02-17T06:25:37.293Z,96395.22
2023-02-17T06:28:05.603Z,96399.41
2023-02-17T06:30:35.091Z,96407.03
2023-02-17T06:33:03.105Z,96409.28
2023-02-17T06:35:31.173Z,96408.00
2023-02-17T06:37:59.238Z,96405.09
2023-02-17T06:40:28.808Z,96411.09
2023-02-17T06:42:56.888Z,96409.78
2023-02-17T06:45:24.902Z,96409.78
2023-02-17T06:47:54.358Z,96413.34
2023-02-17T06:50:22.806Z,96421.78
2023-02-17T06:52:50.884Z,96424.69
2023-02-17T06:55:18.981Z,96423.72
2023-02-17T06:57:46.969Z,96428.25
2023-02-17T07:00:15.447Z,96427.44
2023-02-17T07:02:43.467Z,96430.19
2023-02-17T07:05:12.898Z,96425.00
2023-02-17T07:07:40.993Z,96425.00
2023-02-17T07:10:10.111Z,96434.22
2023-02-17T07:12:38.133Z,96431.50
2023-02-17T07:15:09.474Z,96437.66
2023-02-17T07:17:39.790Z,96444.13
2023-02-17T07:20:09.413Z,96439.91
2023-02-17T07:22:38.754Z,96448.03
2023-02-17T07:25:07.901Z,96448.16
2023-02-17T07:27:37.020Z,96450.72
2023-02-17T07:30:06.397Z,96454.47
2023-02-17T07:32:35.615Z,96453.81
2023-02-17T07:35:03.729Z,96452.84
2023-02-17T07:37:31.706Z,96456.44
2023-02-17T07:40:01.555Z,96463.22
2023-02-17T07:42:29.709Z,96455.91
2023-02-17T07:44:57.700Z,96453.44
2023-02-17T07:47:25.662Z,96467.75
2023-02-17T07:49:53.638Z,96463.66
2023-02-17T07:52:21.587Z,96459.25
2023-02-17T07:54:49.577Z,96464.44
2023-02-17T07:57:18.918Z,96462.78
2023-02-17T07:59:47.590Z,96473.13
2023-02-17T08:02:15.547Z,96470.84
2023-02-17T08:04:44.444Z,96477.38
2023-02-17T08:07:12.378Z,96479.03
2023-02-17T08:09:58.060Z,96481.31
2023-02-17T08:12:44.810Z,96479.03
2023-02-17T08:15:13.271Z,96483.25
2023-02-17T08:17:41.293Z,96475.13
2023-02-17T08:20:09.841Z,96481.13
2023-02-17T08:22:37.886Z,96481.41
2023-02-17T08:25:06.638Z,96482.06
2023-02-17T08:27:35.987Z,96481.72
2023-02-17T08:30:04.095Z,96480.25
2023-02-17T08:32:32.083Z,96484.13
2023-02-17T08:35:00.300Z,96486.72
2023-02-17T08:37:28.394Z,96489.03
2023-02-17T08:39:56.345Z,96493.88
2023-02-17T08:42:24.356Z,96489.00
2023-02-17T08:44:53.719Z,96500.69
2023-02-17T08:47:21.654Z,96498.09
2023-02-17T08:49:49.707Z,96494.19
2023-02-17T08:52:17.806Z,96495.78
2023-02-17T08:54:45.795Z,96497.06
2023-02-17T08:57:13.796Z,96488.75
2023-02-17T08:59:41.840Z,96486.44
2023-02-17T09:02:12.051Z,96489.78
2023-02-17T09:04:40.091Z,96494.59
2023-02-17T09:07:12.198Z,96503.97
2023-02-17T09:09:41.057Z,96496.44
2023-02-17T09:12:09.483Z,96495.13
2023-02-17T09:14:37.639Z,96496.72
2023-02-17T09:17:06.512Z,96496.72
2023-02-17T09:19:39.421Z,96494.31
2023-02-17T09:22:07.587Z,96488.41
2023-02-17T09:24:38.763Z,96494.41
2023-02-17T09:27:07.088Z,96502.63
2023-02-17T09:29:35.078Z,96502.34
2023-02-17T09:32:03.213Z,96506.63
2023-02-17T09:34:31.394Z,96507.28
2023-02-17T09:37:00.735Z,96503.69
2023-02-17T09:39:28.843Z,96500.03
2023-02-17T09:41:57.918Z,96503.16
2023-02-17T09:44:27.443Z,96505.59
2023-02-17T09:47:02.686Z,96506.84
2023-02-17T09:49:38.407Z,96508.41
2023-02-17T09:52:15.584Z,96513.50
2023-02-17T09:54:54.727Z,96512.44
2023-02-17T09:57:28.466Z,96501.34
2023-02-17T10:00:00.268Z,96508.09
2023-02-17T10:02:34.546Z,96517.75
2023-02-17T10:05:08.650Z,96514.25
2023-02-17T10:07:42.954Z,96514.00
2023-02-17T10:10:15.371Z,96517.69
2023-02-17T10:12:48.331Z,96511.31
2023-02-17T10:15:19.635Z,96516.16
2023-02-17T10:17:56.302Z,96512.66
2023-02-17T10:20:26.942Z,96514.19
2023-02-17T10:23:02.774Z,96516.88
2023-02-17T10:25:54.891Z,96520.75
2023-02-17T10:28:35.051Z,96519.06
2023-02-17T10:31:05.491Z,96522.63
2023-02-17T10:33:37.732Z,96512.81
2023-02-17T10:36:17.888Z,96512.69
2023-02-17T10:38:51.937Z,96501.69
2023-02-17T10:41:25.065Z,96503.94
2023-02-17T10:43:54.112Z,96503.53
2023-02-17T10:46:28.478Z,96501.38
2023-02-17T10:48:58.649Z,96507.09
2023-02-17T10:51:29.157Z,96502.41
2023-02-17T10:54:02.376Z,96507.72
2023-02-17T10:56:36.810Z,96502.63
2023-02-17T10:59:09.212Z,96498.88
2023-02-17T11:01:38.252Z,96498.78
2023-02-17T11:04:08.150Z,96491.16
2023-02-17T11:06:42.328Z,96494.81
2023-02-17T11:09:21.800Z,96480.94
2023-02-17T11:11:54.596Z,96470.75
2023-02-17T11:14:28.020Z,96477.22
2023-02-17T11:17:00.147Z,96482.91
2023-02-17T11:19:30.745Z,96481.13
2023-02-17T11:22:00.308Z,96479.59
2023-02-17T11:24:31.836Z,96465.31
2023-02-17T11:27:01.935Z,96464.94
2023-02-17T11:29:31.642Z,96464.94
2023-02-17T11:32:02.261Z,96456.31
2023-02-17T11:34:33.212Z,96452.69
2023-02-17T11:37:04.766Z,96456.16
2023-02-17T11:39:39.701Z,96443.72
2023-02-17T11:42:16.691Z,96442.53
2023-02-17T11:44:44.810Z,96434.16
2023-02-17T11:47:23.990Z,96428.97
2023-02-17T11:50:04.658Z,96427.00
2023-02-17T11:52:47.770Z,96427.00
2023-02-17T11:55:23.753Z,96424.84
2023-02-17T11:58:07.504Z,96413.16
2023-02-17T12:00:46.792Z,96413.78
2023-02-17T12:03:48.524Z,96413.38
2023-02-17T12:06:23.548Z,96410.97
2023-02-17T12:09:04.973Z,96410.97
2023-02-17T12:11:45.069Z,96406.16
2023-02-17T12:14:25.200Z,96402.13
2023-02-17T12:17:02.399Z,96397.69
2023-02-17T12:19:45.205Z,96395.28
2023-02-17T12:22:19.491Z,96386.63
2023-02-17T12:25:09.993Z,96389.63
2023-02-17T12:27:51.119Z,96379.53
2023-02-17T12:30:39.471Z,96379.53
2023-02-17T12:33:22.963Z,96375.50
2023-02-17T12:35:53.361Z,96376.31
2023-02-17T12:38:26.723Z,96379.13
2023-02-17T12:40:59.509Z,96374.25
2023-02-17T12:43:33.602Z,96370.22
2023-02-17T12:46:06.964Z,96363.16
2023-02-17T12:48:39.200Z,96363.38
2023-02-17T12:51:13.096Z,96365.38
2023-02-17T12:53:46.759Z,96362.56
2023-02-17T12:56:47.325Z,96356.50
2023-02-17T12:59:21.273Z,96350.41
2023-02-17T13:01:55.376Z,96351.63
2023-02-17T13:04:26.344Z,96354.44
2023-02-17T13:07:03.475Z,96344.69
2023-02-17T13:09:37.195Z,96345.50
2023-02-17T13:12:11.090Z,96338.22
2023-02-17T13:14:45.950Z,96345.03
2023-02-17T13:17:28.411Z,96341.34
2023-02-17T13:20:24.773Z,96340.94
2023-02-17T13:23:05.620Z,96341.34
2023-02-17T13:25:37.616Z,96345.78
2023-02-17T13:28:33.711Z,96345.94
2023-02-17T13:31:13.407Z,96349.75
2023-02-17T13:33:45.190Z,96348.13
2023-02-17T13:36:16.687Z,96340.44
2023-02-17T13:38:56.536Z,96341.22
2023-02-17T13:41:24.556Z,96333.88
2023-02-17T13:43:52.529Z,96333.78
2023-02-17T13:46:25.337Z,96335.34
2023-02-17T13:49:02.912Z,96335.25
2023-02-17T13:51:33.395Z,96332.75
2023-02-17T13:54:09.061Z,96330.00
2023-02-17T13:56:37.152Z,96324.41
2023-02-17T13:59:10.538Z,96327.63
2023-02-17T14:01:43.194Z,96327.81
2023-02-17T14:04:23.176Z,96333.63
2023-02-17T14:06:52.609Z,96331.00
2023-02-17T14:09:26.586Z,96332.22
2023-02-17T14:11:55.996Z,96336.50
2023-02-17T14:14:27.242Z,96332.28
2023-02-17T14:17:02.516Z,96332.28
2023-02-17T14:19:31.576Z,96337.97
2023-02-17T14:22:03.094Z,96334.16
2023-02-17T14:24:33.333Z,96330.94
2023-02-17T14:27:05.722Z,96330.94
2023-02-17T14:29:41.553Z,96332.19
2023-02-17T14:32:29.176Z,96333.38
2023-02-17T14:35:07.962Z,96333.38
2023-02-17T14:37:37.088Z,96334.63
2023-02-17T14:40:06.259Z,96330.59
2023-02-17T14:42:34.276Z,96335.28
2023-02-17T14:45:02.234Z,96336.72
2023-02-17T14:47:31.590Z,96338.75
2023-02-17T14:49:59.597Z,96340.78
2023-02-17T14:52:27.581Z,96345.66
2023-02-17T14:54:55.637Z,96333.94
2023-02-17T14:57:28.573Z,96336.38
2023-02-17T14:59:57.805Z,96335.78
2023-02-17T15:02:25.891Z,96335.63
2023-02-17T15:04:55.409Z,96337.66
2023-02-17T15:07:24.040Z,96339.25
2023-02-17T15:09:51.981Z,96341.72
2023-02-17T15:12:21.813Z,96340.91
2023-02-17T15:14:49.841Z,96340.53
2023-02-17T15:17:17.950Z,96347.38
2023-02-17T15:19:45.952Z,96346.16
2023-02-17T15:22:15.923Z,96345.34
2023-02-17T15:24:43.896Z,96342.13
2023-02-17T15:27:15.080Z,96345.34
2023-02-17T15:29:43.094Z,96343.75
2023-02-17T15:32:18.950Z,96342.13
2023-02-17T15:34:47.348Z,96342.56
2023-02-17T15:37:16.672Z,96339.31
2023-02-17T15:39:44.686Z,96343.16
2023-02-17T15:42:15.401Z,96342.97
2023-02-17T15:44:47.075Z,96351.41
2023-02-17T15:47:18.353Z,96351.03
2023-02-17T15:49:46.508Z,96346.59
2023-02-17T15:52:16.793Z,96353.88
2023-02-17T15:54:45.412Z,96354.31
2023-02-17T15:57:22.112Z,96351.09
2023-02-17T15:59:50.601Z,96358.78
2023-02-17T16:02:22.534Z,96362.41
2023-02-17T16:04:51.018Z,96360.22
2023-02-17T16:07:20.341Z,96356.00
2023-02-17T16:09:48.445Z,96358.41
2023-02-17T16:12:26.437Z,96359.03
2023-02-17T16:14:55.033Z,96366.53
2023-02-17T16:17:23.305Z,96366.53
2023-02-17T16:19:51.340Z,96364.91
2023-02-17T16:22:20.678Z,96372.19
2023-02-17T16:24:48.644Z,96364.94
2023-02-17T16:27:17.966Z,96377.84
2023-02-17T16:29:45.954Z,96376.25
2023-02-17T16:32:14.591Z,96377.84
2023-02-17T16:34:42.885Z,96378.66
2023-02-17T16:37:16.064Z,96379.47
2023-02-17T16:39:46.188Z,96383.09
2023-02-17T16:42:15.738Z,96383.47
2023-02-17T16:44:44.262Z,96382.72
2023-02-17T16:47:20.789Z,96375.44
2023-02-17T16:49:50.378Z,96377.47
2023-02-17T16:52:25.168Z,96388.38
2023-02-17T16:54:55.473Z,96383.53
2023-02-17T16:57:23.869Z,96385.53
2023-02-17T16:59:51.982Z,96379.09
2023-02-17T17:02:21.634Z,96389.59
2023-02-17T17:04:49.831Z,96391.38
2023-02-17T17:07:18.146Z,96393.19
2023-02-17T17:10:06.934Z,96396.81
2023-02-17T17:12:36.093Z,96396.03
2023-02-17T17:15:05.068Z,96393.25
2023-02-17T17:17:38.831Z,96394.44
2023-02-17T17:20:08.760Z,96407.34
2023-02-17T17:22:36.781Z,96404.53
2023-02-17T17:25:04.866Z,96404.94
2023-02-17T17:27:32.846Z,96403.75
2023-02-17T17:30:02.227Z,96405.13
2023-02-17T17:32:30.260Z,96401.31
2023-02-17T17:34:58.267Z,96404.53
2023-02-17T17:37:26.213Z,96406.16
2023-02-17T17:39:54.152Z,96421.03
2023-02-17T17:42:22.137Z,96413.00
2023-02-17T17:44:50.086Z,96414.59
2023-02-17T17:47:29.454Z,96414.19
2023-02-17T17:49:58.413Z,96414.59
2023-02-17T17:52:26.911Z,96414.97
2023-02-17T17:54:54.860Z,96423.84
2023-02-17T17:57:23.292Z,96419.41
2023-02-17T17:59:51.262Z,96429.88
2023-02-17T18:02:20.596Z,96419.97
2023-02-17T18:04:48.807Z,96421.78
2023-02-17T18:07:18.071Z,96433.06
2023-02-17T18:09:46.214Z,96431.84
2023-02-17T18:12:18.858Z,96425.81
2023-02-17T18:14:50.350Z,96426.19
2023-02-17T18:17:20.588Z,96425.41
2023-02-17T18:19:54.513Z,96431.63
2023-02-17T18:22:22.705Z,96428.41
2023-02-17T18:24:50.901Z,96428.22
2023-02-17T18:27:18.904Z,96432.84
2023-02-17T18:29:47.008Z,96437.81
2023-02-17T18:32:15.026Z,96431.97
2023-02-17T18:34:43.004Z,96431.38
2023-02-17T18:37:12.390Z,96431.13
2023-02-17T18:39:40.736Z,96431.94
2023-02-17T18:42:10.204Z,96434.09
2023-02-17T18:44:38.216Z,96438.91
2023-02-17T18:47:06.233Z,96435.69
2023-02-17T18:49:34.187Z,96434.47
2023-02-17T18:52:02.185Z,96441.09
2023-02-17T18:54:31.597Z,96438.63
2023-02-17T18:56:59.602Z,96444.03
2023-02-17T18:59:27.543Z,96437.56
2023-02-17T19:01:55.557Z,96434.34
2023-02-17T19:04:23.488Z,96430.50
2023-02-17T19:06:51.479Z,96438.34
2023-02-17T19:09:19.436Z,96435.88
2023-02-17T19:11:48.772Z,96433.81
2023-02-17T19:14:16.746Z,96432.31
2023-02-17T19:16:44.824Z,96437.31
2023-02-17T19:19:12.828Z,96443.31
2023-02-17T19:21:40.807Z,96435.81
2023-02-17T19:24:09.539Z,96438.44
2023-02-17T19:26:38.108Z,96436.47
2023-02-17T19:29:07.459Z,96429.63
2023-02-17T19:31:35.556Z,96432.59
2023-02-17T19:34:03.553Z,96424.72
2023-02-17T19:36:31.549Z,96425.31
2023-02-17T19:38:59.558Z,96436.13
2023-02-17T19:41:27.565Z,96427.06
2023-02-17T19:43:55.535Z,96434.63
2023-02-17T19:46:25.780Z,96432.22
2023-02-17T19:48:53.843Z,96433.00
2023-02-17T19:51:22.228Z,96427.78
2023-02-17T19:53:50.213Z,96439.03
2023-02-17T19:56:20.329Z,96440.72
2023-02-17T19:58:49.062Z,96440.72
2023-02-17T20:01:19.495Z,96447.31
2023-02-17T20:03:49.282Z,96438.25
2023-02-17T20:06:21.121Z,96448.69
2023-02-17T20:08:53.076Z,96446.69
2023-02-17T20:11:21.294Z,96453.53
2023-02-17T20:13:49.460Z,96455.09
2023-02-17T20:16:18.642Z,96458.25
2023-02-17T20:18:49.591Z,96461.50
2023-02-17T20:21:20.105Z,96454.03
2023-02-17T20:23:48.211Z,96460.63
2023-02-17T20:26:18.637Z,96464.25
2023-02-17T20:28:47.551Z,96460.00
2023-02-17T20:31:16.092Z,96452.53
2023-02-17T20:33:44.484Z,96462.50
2023-02-17T20:36:13.880Z,96459.13
2023-02-17T20:38:42.725Z,96462.31
2023-02-17T20:41:16.836Z,96462.69
2023-02-17T20:43:45.205Z,96461.94
2023-02-17T20:46:15.220Z,96465.16
2023-02-17T20:48:43.299Z,96455.47
2023-02-17T20:51:11.306Z,96460.69
2023-02-17T20:53:40.849Z,96459.94
2023-02-17T20:56:13.455Z,96463.25
2023-02-17T20:58:41.539Z,96456.72
2023-02-17T21:01:09.933Z,96462.31
2023-02-17T21:03:38.121Z,96460.69
2023-02-17T21:06:15.664Z,96463.50
2023-02-17T21:08:45.696Z,96454.25
2023-02-17T21:11:13.803Z,96459.81
2023-02-17T21:13:41.772Z,96458.59
2023-02-17T21:16:13.065Z,96462.53
2023-02-17T21:18:41.090Z,96464.50
2023-02-17T21:21:09.420Z,96463.53
2023-02-17T21:23:37.464Z,96461.28
2023-02-17T21:26:09.833Z,96465.25
2023-02-17T21:28:38.326Z,96466.63
2023-02-17T21:31:06.881Z,96464.38
2023-02-17T21:33:35.630Z,96464.75
2023-02-17T21:36:07.122Z,96462.16
2023-02-17T21:38:35.227Z,96470.41
2023-02-17T21:41:06.874Z,96472.81
2023-02-17T21:43:53.597Z,96470.84
2023-02-17T21:46:22.076Z,96473.56
2023-02-17T21:48:51.137Z,96469.97
2023-02-17T21:51:20.642Z,96473.91
2023-02-17T21:53:48.591Z,96472.66
2023-02-17T21:56:16.993Z,96469.78
2023-02-17T21:58:48.112Z,96475.00
2023-02-17T22:01:16.607Z,96466.94
2023-02-17T22:03:44.728Z,96463.72
2023-02-17T22:06:17.432Z,96465.59
2023-02-17T22:08:46.372Z,96463.53
2023-02-17T22:11:16.025Z,96460.56
2023-02-17T22:13:44.306Z,96465.50
2023-02-17T22:16:14.355Z,96465.88
2023-02-17T22:18:42.513Z,96464.25
2023-02-17T22:21:11.698Z,96464.25
2023-02-17T22:23:40.662Z,96463.63
2023-02-17T22:26:11.178Z,96462.97
2023-02-17T22:28:39.540Z,96463.34
2023-02-17T22:31:07.669Z,96468.09
2023-02-17T22:33:37.035Z,96468.53
2023-02-17T22:36:07.917Z,96470.16
2023-02-17T22:38:36.578Z,96462.53
2023-02-17T22:41:07.277Z,96467.28
2023-02-17T22:43:36.966Z,96467.66
2023-02-17T22:46:06.300Z,96468.38
2023-02-17T22:48:37.468Z,96476.88
2023-02-17T22:51:06.701Z,96473.03
2023-02-17T22:53:35.873Z,96461.00
2023-02-17T22:56:04.652Z,96470.69
2023-02-17T22:58:33.432Z,96464.84
2023-02-17T23:01:06.420Z,96470.06
2023-02-17T23:03:36.649Z,96465.66
2023-02-17T23:06:07.054Z,96474.09
2023-02-17T23:08:35.668Z,96480.47
2023-02-17T23:11:05.545Z,96474.47
2023-02-17T23:13:33.684Z,96481.66
2023-02-17T23:16:02.121Z,96472.38
2023-02-17T23:18:31.766Z,96478.28
2023-02-17T23:21:07.372Z,96467.88
2023-02-17T23:23:35.610Z,96469.59
2023-02-17T23:26:03.675Z,96475.16
2023-02-17T23:28:31.879Z,96468.69
2023-02-17T23:30:59.993Z,96477.84
2023-02-17T23:33:28.101Z,96471.38
2023-02-17T23:35:56.091Z,96479.81
2023-02-17T23:38:25.456Z,96477.84
2023-02-17T23:40:54.048Z,96485.03
2023-02-17T23:43:22.438Z,96476.59
2023-02-17T23:45:50.427Z,96481.78
2023-02-17T23:48:18.413Z,96478.91
2023-02-17T23:50:46.384Z,96482.81
2023-02-17T23:53:15.742Z,96481.56
2023-02-17T23:55:45.039Z,96476.97
2023-02-17T23:58:12.971Z,96479.59
